Time;durP1;ratioP1;P1;durP2;ratioP2;P2;SDS_P1;SDS_P2;PMS_P1;PMS_P2;Temp;Humidity;BMP_temperature;BMP_pressure;BME280_temperature;BME280_humidity;BME280_pressure;Samples;Min_cycle;Max_cycle;Signal;HPM_P1;HPM_P2
2022/07/05 00:00:45;;;;;;;10.18;3.40;;;;;;;;;;5095686;28;20458;-72
2022/07/05 00:03:11;;;;;;;9.05;3.28;;;;;;;;;;5099431;28;20028;-72
2022/07/05 00:05:37;;;;;;;10.50;3.25;;;;;;;;;;5101832;28;20024;-72
2022/07/05 00:08:04;;;;;;;8.68;2.80;;;;;;;;;;5094740;28;20024;-73
2022/07/05 00:10:30;;;;;;;8.38;3.58;;;;;;;;;;5095316;28;20052;-73
2022/07/05 00:12:57;;;;;;;8.45;3.13;;;;;;;;;;5095882;28;20104;-73
2022/07/05 00:15:23;;;;;;;9.15;3.60;;;;;;;;;;5089984;28;20046;-73
2022/07/05 00:17:49;;;;;;;11.35;3.55;;;;;;;;;;5092289;28;20027;-71
2022/07/05 00:20:15;;;;;;;11.95;2.83;;;;;;;;;;5097290;28;20023;-73
2022/07/05 00:22:42;;;;;;;11.40;2.90;;;;;;;;;;5095453;28;20020;-73
2022/07/05 00:25:08;;;;;;;11.70;3.58;;;;;;;;;;5095553;28;20838;-73
2022/07/05 00:27:35;;;;;;;10.70;3.15;;;;;;;;;;5096031;28;20482;-73
2022/07/05 00:30:01;;;;;;;9.73;3.17;;;;;;;;;;5096655;28;20028;-72
2022/07/05 00:32:27;;;;;;;8.75;2.80;;;;;;;;;;5092008;28;20027;-73
2022/07/05 00:34:53;;;;;;;9.20;2.72;;;;;;;;;;5100187;28;20063;-73
2022/07/05 00:37:19;;;;;;;5.22;2.78;;;;;;;;;;5091717;28;20576;-72
2022/07/05 00:39:45;;;;;;;8.52;3.40;;;;;;;;;;5089871;28;20053;-73
2022/07/05 00:42:11;;;;;;;14.07;3.40;;;;;;;;;;5093645;28;20035;-72
2022/07/05 00:44:39;;;;;;;11.00;3.40;;;;;;;;;;5102067;28;20032;-72
2022/07/05 00:47:06;;;;;;;16.00;2.88;;;;;;;;;;5090996;28;20465;-72
2022/07/05 00:49:33;;;;;;;6.13;3.75;;;;;;;;;;5094244;28;20417;-72
2022/07/05 00:52:00;;;;;;;9.07;3.42;;;;;;;;;;5096956;28;20032;-72
2022/07/05 00:54:27;;;;;;;8.85;3.83;;;;;;;;;;5094688;28;20023;-73
2022/07/05 00:56:53;;;;;;;6.32;2.60;;;;;;;;;;5099142;28;20048;-73
2022/07/05 00:59:20;;;;;;;8.70;2.80;;;;;;;;;;5097556;28;20019;-73
2022/07/05 01:01:46;;;;;;;7.45;3.40;;;;;;;;;;5097243;28;20020;-71
2022/07/05 01:04:12;;;;;;;7.47;2.88;;;;;;;;;;5092817;28;20070;-72
2022/07/05 01:06:40;;;;;;;14.13;3.95;;;;;;;;;;5088675;28;20541;-72
2022/07/05 01:09:06;;;;;;;7.72;2.80;;;;;;;;;;5093543;28;20035;-71
2022/07/05 01:11:32;;;;;;;6.35;3.20;;;;;;;;;;5097929;28;20031;-72
2022/07/05 01:14:01;;;;;;;10.93;3.78;;;;;;;;;;5098750;28;20070;-72
2022/07/05 01:16:27;;;;;;;10.00;2.88;;;;;;;;;;5096337;28;20043;-72
2022/07/05 01:18:54;;;;;;;6.47;3.30;;;;;;;;;;5097802;28;20030;-72
2022/07/05 01:21:22;;;;;;;6.10;2.55;;;;;;;;;;5092155;28;20021;-72
2022/07/05 01:23:48;;;;;;;10.50;3.72;;;;;;;;;;5089107;28;20488;-71
2022/07/05 01:26:14;;;;;;;6.55;3.03;;;;;;;;;;5097458;28;20092;-72
2022/07/05 01:28:40;;;;;;;7.78;2.80;;;;;;;;;;5100379;28;20028;-72
2022/07/05 01:31:07;;;;;;;6.88;2.95;;;;;;;;;;5091488;28;20059;-72
2022/07/05 01:33:33;;;;;;;8.27;3.53;;;;;;;;;;5091671;28;20060;-72
2022/07/05 01:35:59;;;;;;;7.43;3.03;;;;;;;;;;5095272;28;20042;-72
2022/07/05 01:38:25;;;;;;;8.15;3.55;;;;;;;;;;5098969;28;20043;-72
2022/07/05 01:40:52;;;;;;;7.03;2.80;;;;;;;;;;5099211;28;20031;-71
2022/07/05 01:43:19;;;;;;;12.15;3.83;;;;;;;;;;5097345;28;20030;-72
2022/07/05 01:45:48;;;;;;;6.82;3.03;;;;;;;;;;5095894;28;20094;-73
2022/07/05 01:48:19;;;;;;;8.93;2.92;;;;;;;;;;5095816;28;20101;-72
2022/07/05 01:50:47;;;;;;;12.90;4.82;;;;;;;;;;5100612;28;20015;-73
2022/07/05 01:53:20;;;;;;;11.90;4.38;;;;;;;;;;5100609;28;20024;-72
2022/07/05 01:55:47;;;;;;;10.65;3.47;;;;;;;;;;5098298;28;20118;-72
2022/07/05 01:58:13;;;;;;;10.45;3.50;;;;;;;;;;5089893;28;20021;-71
2022/07/05 02:00:46;;;;;;;10.63;3.58;;;;;;;;;;5093552;28;20031;-72
2022/07/05 02:03:13;;;;;;;10.10;3.45;;;;;;;;;;5098604;28;20020;-72
2022/07/05 02:05:40;;;;;;;11.18;3.75;;;;;;;;;;5097431;28;20108;-72
2022/07/05 02:08:06;;;;;;;11.38;4.22;;;;;;;;;;5096603;28;20032;-72
2022/07/05 02:10:32;;;;;;;13.75;3.75;;;;;;;;;;5090995;28;20477;-71
2022/07/05 02:12:58;;;;;;;8.90;3.50;;;;;;;;;;5096354;28;20032;-71
2022/07/05 02:15:24;;;;;;;5.32;2.92;;;;;;;;;;5103312;28;20400;-72
2022/07/05 02:17:50;;;;;;;9.30;3.78;;;;;;;;;;5098843;28;20027;-72
2022/07/05 02:20:16;;;;;;;6.38;3.60;;;;;;;;;;5104157;28;20066;-72
2022/07/05 02:22:42;;;;;;;11.52;3.75;;;;;;;;;;5103743;28;20028;-72
2022/07/05 02:25:08;;;;;;;11.85;4.35;;;;;;;;;;5095600;28;20034;-72
2022/07/05 02:27:34;;;;;;;8.30;3.53;;;;;;;;;;5097663;28;20036;-72
2022/07/05 02:30:01;;;;;;;6.05;2.60;;;;;;;;;;5095338;28;20035;-71
2022/07/05 02:32:27;;;;;;;9.73;3.25;;;;;;;;;;5092935;28;20050;-72
2022/07/05 02:34:53;;;;;;;10.75;3.22;;;;;;;;;;5099882;28;20023;-72
2022/07/05 02:37:19;;;;;;;5.25;3.08;;;;;;;;;;5098809;28;20048;-71
2022/07/05 02:39:45;;;;;;;7.68;3.00;;;;;;;;;;5089877;28;20039;-71
2022/07/05 02:42:11;;;;;;;6.93;3.30;;;;;;;;;;5096383;28;20030;-71
2022/07/05 02:44:38;;;;;;;11.65;3.75;;;;;;;;;;5097653;28;20477;-72
2022/07/05 02:47:04;;;;;;;10.18;3.22;;;;;;;;;;5092486;28;20104;-71
2022/07/05 02:49:30;;;;;;;6.82;2.47;;;;;;;;;;5096047;28;20054;-72
2022/07/05 02:51:56;;;;;;;6.50;2.95;;;;;;;;;;5098287;28;20055;-72
2022/07/05 02:54:22;;;;;;;7.60;3.85;;;;;;;;;;5096278;28;20024;-72
2022/07/05 02:56:48;;;;;;;7.88;3.97;;;;;;;;;;5098211;28;20028;-71
2022/07/05 02:59:14;;;;;;;7.25;3.88;;;;;;;;;;5089948;28;20401;-72
2022/07/05 03:01:40;;;;;;;10.45;3.88;;;;;;;;;;5091365;28;20118;-72
2022/07/05 03:04:09;;;;;;;9.60;4.10;;;;;;;;;;5092065;28;20023;-71
2022/07/05 03:06:35;;;;;;;12.20;3.97;;;;;;;;;;5098660;28;20031;-72
2022/07/05 03:09:02;;;;;;;7.50;3.38;;;;;;;;;;5094566;28;20020;-73
2022/07/05 03:11:28;;;;;;;10.13;3.58;;;;;;;;;;5098900;28;20024;-72
2022/07/05 03:13:54;;;;;;;10.68;3.40;;;;;;;;;;5099309;28;20112;-71
2022/07/05 03:16:21;;;;;;;5.15;2.88;;;;;;;;;;5093189;28;20533;-71
2022/07/05 03:18:47;;;;;;;7.97;3.10;;;;;;;;;;5094826;28;20054;-72
2022/07/05 03:21:13;;;;;;;7.53;3.15;;;;;;;;;;5093610;28;20031;-72
2022/07/05 03:23:39;;;;;;;10.40;4.00;;;;;;;;;;5096421;28;20062;-72
2022/07/05 03:26:06;;;;;;;8.15;3.47;;;;;;;;;;5092077;28;20024;-71
2022/07/05 03:28:32;;;;;;;12.80;3.50;;;;;;;;;;5092561;28;20477;-71
2022/07/05 03:30:58;;;;;;;9.23;4.28;;;;;;;;;;5094813;28;20531;-71
2022/07/05 03:33:24;;;;;;;8.85;4.05;;;;;;;;;;5096229;28;20024;-72
2022/07/05 03:35:51;;;;;;;8.07;3.42;;;;;;;;;;5099635;28;20012;-72
2022/07/05 03:38:17;;;;;;;9.35;3.78;;;;;;;;;;5094760;28;20405;-72
2022/07/05 03:40:43;;;;;;;12.70;4.00;;;;;;;;;;5094781;28;20032;-72
2022/07/05 03:43:09;;;;;;;8.27;3.22;;;;;;;;;;5097252;28;20101;-71
2022/07/05 03:45:35;;;;;;;7.13;3.65;;;;;;;;;;5096128;28;20496;-74
2022/07/05 03:48:01;;;;;;;12.68;3.38;;;;;;;;;;5097773;28;20184;-72
2022/07/05 03:50:28;;;;;;;15.43;4.07;;;;;;;;;;5095898;28;20036;-72
2022/07/05 03:52:54;;;;;;;6.10;3.40;;;;;;;;;;5092935;28;20118;-72
2022/07/05 03:55:20;;;;;;;7.20;3.53;;;;;;;;;;5096603;28;20153;-72
2022/07/05 03:57:47;;;;;;;8.13;3.85;;;;;;;;;;5093489;28;20031;-72
2022/07/05 04:00:14;;;;;;;4.80;3.40;;;;;;;;;;5094774;28;20024;-72
2022/07/05 04:02:40;;;;;;;9.93;3.67;;;;;;;;;;5097346;28;20020;-71
2022/07/05 04:05:06;;;;;;;8.90;4.88;;;;;;;;;;5092812;28;20097;-71
2022/07/05 04:07:33;;;;;;;5.75;3.38;;;;;;;;;;5095661;28;20397;-72
2022/07/05 04:09:59;;;;;;;8.00;3.47;;;;;;;;;;5086314;28;20036;-73
2022/07/05 04:12:25;;;;;;;7.30;3.13;;;;;;;;;;5093573;28;20047;-72
2022/07/05 04:14:51;;;;;;;11.95;3.70;;;;;;;;;;5097106;28;20027;-72
2022/07/05 04:17:18;;;;;;;6.53;3.67;;;;;;;;;;5089015;28;20039;-71
2022/07/05 04:19:44;;;;;;;6.80;3.67;;;;;;;;;;5096694;28;20030;-71
2022/07/05 04:22:10;;;;;;;7.43;3.58;;;;;;;;;;5093878;28;20031;-72
2022/07/05 04:25:16;;;;;;;7.28;3.38;;;;;;;;;;5089360;28;20024;-72
2022/07/05 04:27:22;;;;;;;7.40;4.30;;;;;;;;;;5092249;28;20390;-71
2022/07/05 04:29:48;;;;;;;8.60;3.70;;;;;;;;;;5089077;28;20030;-72
2022/07/05 04:32:15;;;;;;;7.07;3.28;;;;;;;;;;5102764;28;20361;-72
2022/07/05 04:34:41;;;;;;;5.60;3.17;;;;;;;;;;5101172;28;20023;-71
2022/07/05 04:37:07;;;;;;;7.25;3.80;;;;;;;;;;5097038;28;20039;-71
2022/07/05 04:39:33;;;;;;;8.05;3.75;;;;;;;;;;5095691;28;20473;-71
2022/07/05 04:41:59;;;;;;;11.63;4.70;;;;;;;;;;5094855;28;20042;-72
2022/07/05 04:44:25;;;;;;;6.72;3.80;;;;;;;;;;5094535;28;20035;-72
2022/07/05 04:46:51;;;;;;;7.65;3.55;;;;;;;;;;5093334;28;20497;-72
2022/07/05 04:49:17;;;;;;;5.43;4.43;;;;;;;;;;5089345;28;20107;-71
2022/07/05 04:51:43;;;;;;;5.97;4.28;;;;;;;;;;5104877;28;20088;-71
2022/07/05 04:54:12;;;;;;;4.70;3.28;;;;;;;;;;5097356;28;20561;-74
2022/07/05 04:56:38;;;;;;;5.47;3.30;;;;;;;;;;5096382;28;20058;-72
2022/07/05 04:59:05;;;;;;;3.67;2.70;;;;;;;;;;5095880;28;20027;-73
2022/07/05 05:01:31;;;;;;;5.47;3.08;;;;;;;;;;5099409;28;20027;-72
2022/07/05 05:03:57;;;;;;;3.50;2.70;;;;;;;;;;5101098;28;20032;-72
2022/07/05 05:06:23;;;;;;;2.95;2.40;;;;;;;;;;5105606;28;20477;-73
2022/07/05 05:08:49;;;;;;;3.67;2.45;;;;;;;;;;5098602;28;20081;-72
2022/07/05 05:11:15;;;;;;;2.80;2.20;;;;;;;;;;5101127;28;20019;-72
2022/07/05 05:13:45;;;;;;;3.70;2.05;;;;;;;;;;5100921;28;20030;-72
2022/07/05 05:16:11;;;;;;;3.45;2.50;;;;;;;;;;5103337;28;20032;-73
2022/07/05 05:18:37;;;;;;;3.97;2.10;;;;;;;;;;5097240;28;20050;-72
2022/07/05 05:21:04;;;;;;;5.82;2.35;;;;;;;;;;5101819;28;20028;-72
2022/07/05 05:23:30;;;;;;;1.85;1.70;;;;;;;;;;5093411;28;20016;-73
2022/07/05 05:25:56;;;;;;;3.63;1.77;;;;;;;;;;5095520;28;20054;-72
2022/07/05 05:28:22;;;;;;;4.32;1.63;;;;;;;;;;5098965;28;20485;-72
2022/07/05 05:30:48;;;;;;;1.95;1.73;;;;;;;;;;5095451;28;20051;-71
2022/07/05 05:33:14;;;;;;;2.38;1.65;;;;;;;;;;5099067;28;20359;-72
2022/07/05 05:35:40;;;;;;;1.77;1.67;;;;;;;;;;5090429;28;20510;-72
2022/07/05 05:38:06;;;;;;;3.13;1.73;;;;;;;;;;5095988;28;20044;-73
2022/07/05 05:40:33;;;;;;;2.78;1.58;;;;;;;;;;5089362;28;20028;-72
2022/07/05 05:42:59;;;;;;;1.80;1.70;;;;;;;;;;5100673;28;20016;-72
2022/07/05 05:45:26;;;;;;;3.47;1.60;;;;;;;;;;5100964;28;20070;-72
2022/07/05 05:47:53;;;;;;;1.55;1.45;;;;;;;;;;5091957;28;20032;-72
2022/07/05 05:50:20;;;;;;;1.50;1.40;;;;;;;;;;5098196;28;20015;-72
2022/07/05 05:52:47;;;;;;;1.50;1.40;;;;;;;;;;5100439;28;20027;-72
2022/07/05 05:55:13;;;;;;;1.30;1.23;;;;;;;;;;5096026;28;20024;-72
2022/07/05 05:57:39;;;;;;;1.20;1.17;;;;;;;;;;5100549;28;20036;-72
2022/07/05 06:00:05;;;;;;;1.45;1.13;;;;;;;;;;5100940;28;20103;-72
2022/07/05 06:02:32;;;;;;;4.63;1.55;;;;;;;;;;5099318;28;20081;-72
2022/07/05 06:04:58;;;;;;;1.50;1.40;;;;;;;;;;5107830;28;20048;-72
2022/07/05 06:07:24;;;;;;;1.00;1.00;;;;;;;;;;5101810;28;20377;-71
2022/07/05 06:09:50;;;;;;;1.40;1.30;;;;;;;;;;5103568;28;20048;-71
2022/07/05 06:12:16;;;;;;;1.40;1.30;;;;;;;;;;5097828;28;20499;-71
2022/07/05 06:14:42;;;;;;;1.27;1.17;;;;;;;;;;5098533;28;20032;-71
2022/07/05 06:17:08;;;;;;;1.52;1.23;;;;;;;;;;5098679;28;20055;-71
2022/07/05 06:19:34;;;;;;;1.05;1.05;;;;;;;;;;5099643;28;20392;-73
2022/07/05 06:22:00;;;;;;;1.30;1.20;;;;;;;;;;5100924;28;20245;-72
2022/07/05 06:24:26;;;;;;;1.17;1.10;;;;;;;;;;5105551;28;20047;-72
2022/07/05 06:26:52;;;;;;;1.58;1.40;;;;;;;;;;5101156;28;20031;-72
2022/07/05 06:29:18;;;;;;;1.02;1.02;;;;;;;;;;5097164;28;20050;-72
2022/07/05 06:31:44;;;;;;;1.40;1.30;;;;;;;;;;5097148;28;20588;-71
2022/07/05 06:34:11;;;;;;;1.08;1.08;;;;;;;;;;5099540;28;20035;-71
2022/07/05 06:36:37;;;;;;;1.35;1.23;;;;;;;;;;5097674;28;20028;-72
2022/07/05 06:39:03;;;;;;;2.95;1.08;;;;;;;;;;5096568;28;20036;-71
2022/07/05 06:41:29;;;;;;;1.35;1.20;;;;;;;;;;5098166;28;20023;-73
2022/07/05 06:43:55;;;;;;;1.40;1.30;;;;;;;;;;5094949;28;20489;-72
2022/07/05 06:46:21;;;;;;;0.85;0.85;;;;;;;;;;5098813;28;20110;-71
2022/07/05 06:48:47;;;;;;;1.48;1.38;;;;;;;;;;5099146;28;20069;-72
2022/07/05 06:51:13;;;;;;;1.40;1.30;;;;;;;;;;5097695;28;20020;-72
2022/07/05 06:53:39;;;;;;;1.85;1.40;;;;;;;;;;5094025;28;20020;-72
2022/07/05 06:56:05;;;;;;;1.52;1.30;;;;;;;;;;5102385;28;20028;-72
2022/07/05 06:58:31;;;;;;;1.30;1.20;;;;;;;;;;5092908;28;20449;-71
2022/07/05 07:00:57;;;;;;;1.40;1.30;;;;;;;;;;5098063;28;20045;-71
2022/07/05 07:03:23;;;;;;;1.38;1.27;;;;;;;;;;5093524;28;20028;-71
2022/07/05 07:05:50;;;;;;;1.45;1.30;;;;;;;;;;5099799;28;20030;-72
2022/07/05 07:11:01;;;;;;;1.53;1.10;;;;;;;;;;5092033;28;20067;-72
2022/07/05 07:13:27;;;;;;;1.30;1.20;;;;;;;;;;5097351;28;20592;-72
2022/07/05 07:15:53;;;;;;;0.90;0.90;;;;;;;;;;5100973;28;20069;-72
2022/07/05 07:18:19;;;;;;;1.52;1.02;;;;;;;;;;5092318;28;20775;-72
2022/07/05 07:20:45;;;;;;;1.02;1.00;;;;;;;;;;5095753;28;20031;-72
2022/07/05 07:23:11;;;;;;;1.55;1.25;;;;;;;;;;5094979;28;20020;-72
2022/07/05 07:25:37;;;;;;;1.63;1.52;;;;;;;;;;5088814;28;20055;-72
2022/07/05 07:28:05;;;;;;;1.52;1.40;;;;;;;;;;5085693;28;20024;-73
2022/07/05 07:30:32;;;;;;;1.33;1.23;;;;;;;;;;5089189;28;20030;-72
2022/07/05 07:32:59;;;;;;;1.65;1.40;;;;;;;;;;5086979;28;20043;-74
2022/07/05 07:35:25;;;;;;;1.25;1.15;;;;;;;;;;5082413;28;20130;-74
2022/07/05 07:37:51;;;;;;;1.85;1.10;;;;;;;;;;5091877;28;20071;-74
2022/07/05 07:40:18;;;;;;;1.67;1.17;;;;;;;;;;5098052;28;20011;-73
2022/07/05 07:42:44;;;;;;;3.00;1.17;;;;;;;;;;5098066;28;20116;-73
2022/07/05 07:45:10;;;;;;;1.30;1.30;;;;;;;;;;5092805;28;20023;-76
2022/07/05 07:47:37;;;;;;;1.60;1.50;;;;;;;;;;5093727;28;20031;-74
2022/07/05 07:50:04;;;;;;;2.38;1.20;;;;;;;;;;5087370;28;20093;-75
2022/07/05 07:52:33;;;;;;;1.10;1.10;;;;;;;;;;5091017;28;20027;-73
2022/07/05 07:54:59;;;;;;;1.10;1.10;;;;;;;;;;5091656;28;20031;-72
2022/07/05 07:57:25;;;;;;;1.23;1.20;;;;;;;;;;5094925;28;20069;-72
2022/07/05 07:59:51;;;;;;;1.33;1.25;;;;;;;;;;5088968;28;20031;-72
2022/07/05 08:02:20;;;;;;;2.22;1.67;;;;;;;;;;5087250;28;20031;-73
2022/07/05 08:04:47;;;;;;;1.33;1.30;;;;;;;;;;5084773;28;20022;-74
2022/07/05 08:07:13;;;;;;;1.40;1.30;;;;;;;;;;5090479;28;20110;-73
2022/07/05 08:09:40;;;;;;;1.45;1.25;;;;;;;;;;5090288;28;20110;-73
2022/07/05 08:12:06;;;;;;;1.13;1.13;;;;;;;;;;5097239;28;20042;-73
2022/07/05 08:14:32;;;;;;;1.30;1.20;;;;;;;;;;5087276;28;20027;-73
2022/07/05 08:16:58;;;;;;;1.35;1.25;;;;;;;;;;5091435;28;20031;-73
2022/07/05 08:22:09;;;;;;;1.30;1.23;;;;;;;;;;5095089;28;20109;-71
2022/07/05 08:24:36;;;;;;;1.42;1.33;;;;;;;;;;5084734;28;20035;-72
2022/07/05 08:27:03;;;;;;;1.40;1.30;;;;;;;;;;5083209;28;20020;-72
2022/07/05 08:29:29;;;;;;;1.17;1.17;;;;;;;;;;5091840;28;20478;-73
2022/07/05 08:31:55;;;;;;;1.60;1.50;;;;;;;;;;5086528;28;20586;-72
2022/07/05 08:34:21;;;;;;;1.80;1.50;;;;;;;;;;5085695;28;20066;-71
2022/07/05 08:36:48;;;;;;;1.77;1.50;;;;;;;;;;5094401;28;20047;-73
2022/07/05 08:39:14;;;;;;;3.05;1.40;;;;;;;;;;5089814;28;20074;-74
2022/07/05 08:41:41;;;;;;;1.65;1.45;;;;;;;;;;5088713;28;20712;-72
2022/07/05 08:44:07;;;;;;;1.30;1.27;;;;;;;;;;5089163;28;20031;-72
2022/07/05 08:46:37;;;;;;;1.42;1.33;;;;;;;;;;5095448;28;20035;-73
2022/07/05 08:49:07;;;;;;;2.50;1.70;;;;;;;;;;5089043;28;21239;-72
2022/07/05 08:51:34;;;;;;;1.48;1.38;;;;;;;;;;5080754;28;20494;-73
2022/07/05 08:54:01;;;;;;;2.00;1.73;;;;;;;;;;5087788;28;21015;-73
2022/07/05 08:56:27;;;;;;;1.70;1.52;;;;;;;;;;5086429;28;20081;-72
2022/07/05 08:58:53;;;;;;;1.50;1.40;;;;;;;;;;5087553;28;20040;-72
2022/07/05 09:01:19;;;;;;;1.60;1.50;;;;;;;;;;5090540;28;20016;-73
2022/07/05 09:03:52;;;;;;;1.85;1.70;;;;;;;;;;5082277;28;20089;-73
2022/07/05 09:06:19;;;;;;;1.80;1.70;;;;;;;;;;5082611;28;20099;-72
2022/07/05 09:08:45;;;;;;;1.65;1.55;;;;;;;;;;5089718;28;20033;-73
2022/07/05 09:11:14;;;;;;;1.63;1.52;;;;;;;;;;5082896;28;20056;-72
2022/07/05 09:13:41;;;;;;;1.70;1.60;;;;;;;;;;5083366;28;20534;-72
2022/07/05 09:16:08;;;;;;;1.83;1.73;;;;;;;;;;5085257;28;20024;-73
2022/07/05 09:18:51;;;;;;;2.40;1.60;;;;;;;;;;5086996;28;20498;-73
2022/07/05 09:21:18;;;;;;;1.52;1.42;;;;;;;;;;5097411;28;20494;-72
2022/07/05 09:23:45;;;;;;;1.60;1.50;;;;;;;;;;5085864;28;20378;-72
2022/07/05 09:26:11;;;;;;;1.60;1.50;;;;;;;;;;5082966;28;20039;-73
2022/07/05 09:28:37;;;;;;;1.85;1.58;;;;;;;;;;5087842;28;20032;-73
2022/07/05 09:31:03;;;;;;;1.25;1.20;;;;;;;;;;5095554;28;20081;-75
2022/07/05 09:33:29;;;;;;;1.60;1.50;;;;;;;;;;5086558;28;20016;-73
2022/07/05 09:36:01;;;;;;;1.55;1.45;;;;;;;;;;5084417;28;20024;-73
2022/07/05 09:38:29;;;;;;;2.00;1.80;;;;;;;;;;5093112;28;20036;-73
2022/07/05 09:40:57;;;;;;;1.98;1.65;;;;;;;;;;5086530;28;20024;-72
2022/07/05 09:43:24;;;;;;;1.90;1.70;;;;;;;;;;5088094;28;20027;-73
2022/07/05 09:45:51;;;;;;;1.80;1.70;;;;;;;;;;5086611;28;20032;-73
2022/07/05 09:48:17;;;;;;;2.33;1.70;;;;;;;;;;5089822;28;20036;-73
2022/07/05 09:50:44;;;;;;;2.03;1.90;;;;;;;;;;5094755;28;20134;-73
2022/07/05 09:53:11;;;;;;;2.22;1.58;;;;;;;;;;5091861;28;20386;-74
2022/07/05 09:55:38;;;;;;;1.70;1.60;;;;;;;;;;5094978;28;20128;-73
2022/07/05 09:58:04;;;;;;;3.42;1.83;;;;;;;;;;5093141;28;20031;-73
2022/07/05 10:00:30;;;;;;;1.90;1.70;;;;;;;;;;5094572;28;20051;-73
2022/07/05 10:03:02;;;;;;;1.80;1.50;;;;;;;;;;5093789;28;20030;-74
2022/07/05 10:05:29;;;;;;;2.10;1.77;;;;;;;;;;5088910;28;20035;-72
2022/07/05 10:07:59;;;;;;;1.85;1.70;;;;;;;;;;5087501;28;20060;-73
2022/07/05 10:10:32;;;;;;;2.30;1.60;;;;;;;;;;5093290;28;20267;-74
2022/07/05 10:13:00;;;;;;;1.70;1.60;;;;;;;;;;5097997;28;20504;-74
2022/07/05 10:15:35;;;;;;;1.95;1.65;;;;;;;;;;5096011;28;20439;-75
2022/07/05 10:18:04;;;;;;;2.47;2.28;;;;;;;;;;5096872;28;20036;-74
2022/07/05 10:20:34;;;;;;;1.88;1.77;;;;;;;;;;5095355;28;20027;-73
2022/07/05 10:23:04;;;;;;;2.20;1.65;;;;;;;;;;5093517;28;20472;-74
2022/07/05 10:25:31;;;;;;;2.08;1.63;;;;;;;;;;5091973;28;20475;-73
2022/07/05 10:27:58;;;;;;;1.92;1.70;;;;;;;;;;5093298;28;20047;-73
2022/07/05 10:30:24;;;;;;;1.80;1.70;;;;;;;;;;5091412;28;20553;-74
2022/07/05 10:32:51;;;;;;;1.80;1.70;;;;;;;;;;5096764;28;20053;-74
2022/07/05 10:35:18;;;;;;;1.88;1.77;;;;;;;;;;5095783;28;20034;-73
2022/07/05 10:37:44;;;;;;;2.38;1.90;;;;;;;;;;5090647;28;20082;-73
2022/07/05 10:40:11;;;;;;;1.80;1.70;;;;;;;;;;5088322;28;20497;-72
2022/07/05 10:42:42;;;;;;;2.45;1.90;;;;;;;;;;5089924;28;20028;-72
2022/07/05 10:45:26;;;;;;;1.73;1.60;;;;;;;;;;5089034;28;20031;-73
2022/07/05 10:48:10;;;;;;;2.43;1.90;;;;;;;;;;5091084;28;20036;-72
2022/07/05 10:50:47;;;;;;;1.85;1.73;;;;;;;;;;5095972;28;20721;-73
2022/07/05 10:53:14;;;;;;;1.85;1.65;;;;;;;;;;5091003;28;20072;-72
2022/07/05 10:55:47;;;;;;;1.70;1.60;;;;;;;;;;5093693;28;20520;-73
2022/07/05 10:58:17;;;;;;;1.70;1.60;;;;;;;;;;5098277;28;20142;-72
2022/07/05 11:00:44;;;;;;;1.90;1.70;;;;;;;;;;5086779;28;20019;-72
2022/07/05 11:03:28;;;;;;;3.75;2.38;;;;;;;;;;5093173;28;20034;-73
2022/07/05 11:05:55;;;;;;;2.10;1.90;;;;;;;;;;5093968;28;20537;-72
2022/07/05 11:08:21;;;;;;;2.00;1.58;;;;;;;;;;5085287;28;20031;-73
2022/07/05 11:11:06;;;;;;;2.30;2.05;;;;;;;;;;5085130;28;20035;-73
2022/07/05 11:13:43;;;;;;;2.42;1.73;;;;;;;;;;5086237;28;20039;-73
2022/07/05 11:16:30;;;;;;;1.85;1.70;;;;;;;;;;5101292;28;20191;-72
2022/07/05 11:19:12;;;;;;;1.60;1.50;;;;;;;;;;5080632;28;20032;-72
2022/07/05 11:21:40;;;;;;;1.70;1.60;;;;;;;;;;5082105;28;20084;-76
2022/07/05 11:24:20;;;;;;;2.97;1.70;;;;;;;;;;5070487;28;20020;-73
2022/07/05 11:26:48;;;;;;;3.38;1.83;;;;;;;;;;5092890;28;20110;-74
2022/07/05 11:29:32;;;;;;;3.35;2.15;;;;;;;;;;5092425;28;20032;-75
2022/07/05 11:32:08;;;;;;;1.85;1.75;;;;;;;;;;5090020;28;20563;-75
2022/07/05 11:34:35;;;;;;;1.95;1.75;;;;;;;;;;5088327;28;20028;-74
2022/07/05 11:37:34;;;;;;;1.77;1.67;;;;;;;;;;5085515;28;20118;-74
2022/07/05 11:40:06;;;;;;;1.85;1.75;;;;;;;;;;5076308;28;20480;-74
2022/07/05 11:42:37;;;;;;;1.60;1.50;;;;;;;;;;5088790;28;20098;-73
2022/07/05 11:45:04;;;;;;;1.70;1.60;;;;;;;;;;5089622;28;20497;-73
2022/07/05 11:47:31;;;;;;;1.63;1.52;;;;;;;;;;5091715;28;20389;-73
2022/07/05 11:49:58;;;;;;;1.70;1.60;;;;;;;;;;5091304;28;20063;-73
2022/07/05 11:52:32;;;;;;;1.33;1.33;;;;;;;;;;5090583;28;20074;-72
2022/07/05 11:54:58;;;;;;;2.00;1.80;;;;;;;;;;5092733;28;20039;-72
2022/07/05 11:57:24;;;;;;;2.03;1.70;;;;;;;;;;5088693;28;20124;-72
2022/07/05 11:59:51;;;;;;;1.75;1.65;;;;;;;;;;5093495;28;20549;-72
2022/07/05 12:02:17;;;;;;;2.03;1.80;;;;;;;;;;5085814;28;20024;-72
2022/07/05 12:04:50;;;;;;;1.90;1.80;;;;;;;;;;5091497;28;20071;-72
2022/07/05 12:07:32;;;;;;;3.63;2.30;;;;;;;;;;5087471;28;20473;-73
2022/07/05 12:12:44;;;;;;;2.40;2.20;;;;;;;;;;5083864;28;20058;-72
2022/07/05 12:15:11;;;;;;;2.20;2.00;;;;;;;;;;5084563;28;20339;-73
2022/07/05 12:17:38;;;;;;;2.50;1.98;;;;;;;;;;5083051;28;20034;-71
2022/07/05 12:20:05;;;;;;;2.42;1.92;;;;;;;;;;5093135;28;20028;-71
2022/07/05 12:22:31;;;;;;;2.17;1.98;;;;;;;;;;5087848;28;20546;-71
2022/07/05 12:24:58;;;;;;;2.17;1.98;;;;;;;;;;5087647;28;20055;-72
2022/07/05 12:27:25;;;;;;;2.08;1.88;;;;;;;;;;5086564;28;20020;-73
2022/07/05 12:29:51;;;;;;;2.50;2.10;;;;;;;;;;5090419;28;20035;-73
2022/07/05 12:32:17;;;;;;;2.38;2.00;;;;;;;;;;5086566;28;20146;-75
2022/07/05 12:34:43;;;;;;;3.95;2.10;;;;;;;;;;5096875;28;20027;-72
2022/07/05 12:37:09;;;;;;;2.63;1.90;;;;;;;;;;5089013;28;20040;-72
2022/07/05 12:39:36;;;;;;;2.33;2.13;;;;;;;;;;5084119;28;20012;-72
2022/07/05 12:42:02;;;;;;;2.85;2.10;;;;;;;;;;5089867;28;20259;-73
2022/07/05 12:44:28;;;;;;;2.22;2.03;;;;;;;;;;5096819;28;20493;-71
2022/07/05 12:47:04;;;;;;;2.55;2.35;;;;;;;;;;5090964;28;20032;-72
2022/07/05 12:49:30;;;;;;;2.70;2.05;;;;;;;;;;5089968;28;20027;-72
2022/07/05 12:52:04;;;;;;;2.40;2.05;;;;;;;;;;5084388;28;20024;-73
2022/07/05 13:00:16;;;;;;;2.75;2.45;;;;;;;;;;5084320;28;20097;-72
2022/07/05 13:02:46;;;;;;;2.78;2.25;;;;;;;;;;5085060;28;20035;-72
2022/07/05 13:05:25;;;;;;;2.40;2.20;;;;;;;;;;5091319;28;20024;-73
2022/07/05 13:07:51;;;;;;;2.40;2.20;;;;;;;;;;5087062;28;20031;-72
2022/07/05 13:10:17;;;;;;;2.40;2.20;;;;;;;;;;5089694;28;20032;-73
2022/07/05 13:12:44;;;;;;;2.65;2.17;;;;;;;;;;5089114;28;20527;-72
2022/07/05 13:15:10;;;;;;;2.50;2.30;;;;;;;;;;5088433;28;20035;-72
2022/07/05 13:17:37;;;;;;;2.30;2.10;;;;;;;;;;5092142;28;20077;-73
2022/07/05 13:20:04;;;;;;;2.47;2.28;;;;;;;;;;5096233;28;20050;-73
2022/07/05 13:22:30;;;;;;;2.85;2.33;;;;;;;;;;5099070;28;20028;-73
2022/07/05 13:24:56;;;;;;;2.42;2.22;;;;;;;;;;5097482;28;20015;-72
2022/07/05 13:27:22;;;;;;;3.50;2.30;;;;;;;;;;5095529;28;20065;-73
2022/07/05 13:29:49;;;;;;;6.18;2.30;;;;;;;;;;5094268;28;20048;-72
2022/07/05 13:32:16;;;;;;;3.13;2.55;;;;;;;;;;5090487;28;20192;-72
2022/07/05 13:34:42;;;;;;;2.90;2.60;;;;;;;;;;5094122;28;20028;-73
2022/07/05 13:37:09;;;;;;;4.53;2.92;;;;;;;;;;5090794;28;20112;-72
2022/07/05 13:39:37;;;;;;;3.90;2.55;;;;;;;;;;5091743;28;20368;-71
2022/07/05 13:42:05;;;;;;;3.10;2.63;;;;;;;;;;5094122;28;20034;-73
2022/07/05 13:44:32;;;;;;;3.00;2.58;;;;;;;;;;5090098;28;20766;-72
2022/07/05 13:46:58;;;;;;;4.25;2.60;;;;;;;;;;5097967;28;20111;-73
2022/07/05 13:49:24;;;;;;;3.13;2.72;;;;;;;;;;5085882;28;20032;-72
2022/07/05 13:51:50;;;;;;;3.47;3.03;;;;;;;;;;5089251;28;20645;-72
2022/07/05 13:54:16;;;;;;;5.05;2.83;;;;;;;;;;5086062;28;20029;-72
2022/07/05 13:56:42;;;;;;;3.22;2.75;;;;;;;;;;5088684;28;20246;-72
2022/07/05 13:59:09;;;;;;;3.35;2.65;;;;;;;;;;5085551;28;20091;-73
2022/07/05 14:01:35;;;;;;;3.22;2.58;;;;;;;;;;5095902;28;20441;-72
2022/07/05 14:04:02;;;;;;;3.90;2.42;;;;;;;;;;5089568;28;20051;-73
2022/07/05 14:06:32;;;;;;;3.08;2.47;;;;;;;;;;5091501;28;20036;-71
2022/07/05 14:08:58;;;;;;;4.65;2.70;;;;;;;;;;5092669;28;20027;-72
2022/07/05 14:11:27;;;;;;;3.22;2.55;;;;;;;;;;5089667;28;20016;-72
2022/07/05 14:13:56;;;;;;;3.63;2.60;;;;;;;;;;5090176;28;20028;-73
2022/07/05 14:16:23;;;;;;;2.40;2.20;;;;;;;;;;5086445;28;20036;-73
2022/07/05 14:18:50;;;;;;;2.83;2.53;;;;;;;;;;5085094;28;20261;-72
2022/07/05 14:21:17;;;;;;;3.95;2.30;;;;;;;;;;5087128;28;20039;-71
2022/07/05 14:23:46;;;;;;;4.22;2.53;;;;;;;;;;5086765;28;20073;-72
2022/07/05 14:26:12;;;;;;;3.58;2.50;;;;;;;;;;5097161;28;20045;-72
2022/07/05 14:28:38;;;;;;;3.00;2.58;;;;;;;;;;5094412;28;20390;-72
2022/07/05 14:31:04;;;;;;;3.03;2.72;;;;;;;;;;5087644;28;20028;-72
2022/07/05 14:33:31;;;;;;;3.95;3.33;;;;;;;;;;5094109;28;20080;-72
2022/07/05 14:35:57;;;;;;;3.58;2.92;;;;;;;;;;5096689;28;20039;-72
2022/07/05 14:38:23;;;;;;;3.15;2.67;;;;;;;;;;5088100;28;20052;-72
2022/07/05 14:40:49;;;;;;;4.88;2.70;;;;;;;;;;5093975;28;20031;-71
2022/07/05 14:43:16;;;;;;;3.95;2.45;;;;;;;;;;5093602;28;20510;-72
2022/07/05 14:45:42;;;;;;;4.35;2.65;;;;;;;;;;5093087;28;20128;-72
2022/07/05 14:48:08;;;;;;;5.20;2.90;;;;;;;;;;5096545;28;20027;-72
2022/07/05 14:50:34;;;;;;;3.80;3.25;;;;;;;;;;5089389;28;20546;-72
2022/07/05 14:53:07;;;;;;;3.90;2.80;;;;;;;;;;5091426;28;20067;-72
2022/07/05 14:55:33;;;;;;;3.85;2.67;;;;;;;;;;5087286;28;20036;-72